createdAt,value
2023-03-21T00:02:36.282Z,8.80
2023-03-21T00:06:38.026Z,5.50
2023-03-21T00:10:41.208Z,5.63
2023-03-21T00:14:42.826Z,7.80
2023-03-21T00:18:45.942Z,7.77
2023-03-21T00:22:47.234Z,8.10
2023-03-21T00:26:50.089Z,6.40
2023-03-21T00:30:51.251Z,9.53
2023-03-21T00:35:11.856Z,7.83
2023-03-21T00:38:55.629Z,8.70
2023-03-21T00:42:56.799Z,5.60
2023-03-21T00:47:07.167Z,8.63
2023-03-21T00:51:04.774Z,10.23
2023-03-21T00:55:06.999Z,7.20
2023-03-21T00:59:08.314Z,7.63
2023-03-21T01:03:23.777Z,10.43
2023-03-21T01:07:15.039Z,7.70
2023-03-21T01:11:18.704Z,7.90
2023-03-21T01:15:20.038Z,12.27
2023-03-21T01:19:32.920Z,8.37
2023-03-21T01:23:28.970Z,7.50
2023-03-21T01:27:30.090Z,10.50
2023-03-21T01:31:31.493Z,6.70
2023-03-21T01:35:40.924Z,8.43
2023-03-21T01:39:36.074Z,8.03
2023-03-21T01:43:37.336Z,10.47
2023-03-21T01:47:38.520Z,12.93
2023-03-21T01:51:49.493Z,9.47
2023-03-21T01:55:50.711Z,7.33
2023-03-21T01:59:54.116Z,6.73
2023-03-21T02:03:55.248Z,8.33
2023-03-21T02:07:56.507Z,7.57
2023-03-21T02:11:57.866Z,9.00
2023-03-21T02:16:14.820Z,7.20
2023-03-21T02:20:42.469Z,10.97
2023-03-21T02:24:59.528Z,8.30
2023-03-21T02:28:57.156Z,7.60
2023-03-21T02:33:29.363Z,6.67
2023-03-21T02:37:38.751Z,9.87
2023-03-21T02:41:52.544Z,8.77
2023-03-21T02:46:00.689Z,11.83
2023-03-21T02:50:05.519Z,10.47
2023-03-21T02:54:29.895Z,8.00
2023-03-21T02:58:17.096Z,9.23
2023-03-21T03:02:22.391Z,8.73
2023-03-21T03:06:39.241Z,12.73
2023-03-21T03:10:44.092Z,9.77
2023-03-21T03:15:11.005Z,9.03
2023-03-21T03:19:16.077Z,10.97
2023-03-21T03:23:24.064Z,14.00
2023-03-21T03:27:31.922Z,11.10
2023-03-21T03:31:37.540Z,11.03
2023-03-21T03:35:38.646Z,10.83
2023-03-21T03:39:43.660Z,9.20
2023-03-21T03:43:48.622Z,11.67
2023-03-21T03:48:17.597Z,12.80
2023-03-21T03:52:25.860Z,9.80
2023-03-21T03:56:28.122Z,7.87
2023-03-21T04:00:32.813Z,8.37
2023-03-21T04:04:34.553Z,10.63
2023-03-21T04:08:37.116Z,9.67
2023-03-21T04:12:38.277Z,8.47
2023-03-21T04:16:39.472Z,9.03
2023-03-21T04:20:40.827Z,12.47
2023-03-21T04:24:42.290Z,13.17
2023-03-21T04:28:43.508Z,13.83
2023-03-21T04:32:44.922Z,12.23
2023-03-21T04:36:46.304Z,11.57
2023-03-21T04:40:47.506Z,10.07
2023-03-21T04:44:48.966Z,8.57
2023-03-21T04:48:50.048Z,8.27
2023-03-21T04:52:51.113Z,11.17
2023-03-21T04:56:52.884Z,11.27
2023-03-21T05:00:54.106Z,14.53
2023-03-21T05:04:57.010Z,15.87
2023-03-21T05:09:03.735Z,12.67
2023-03-21T05:13:05.053Z,21.43
2023-03-21T05:17:06.163Z,17.27
2023-03-21T05:21:09.313Z,11.00
2023-03-21T05:25:11.653Z,8.57
2023-03-21T05:29:12.855Z,14.67
2023-03-21T05:33:13.992Z,14.10
2023-03-21T05:37:15.119Z,15.13
2023-03-21T05:41:19.114Z,17.63
2023-03-21T05:45:20.248Z,26.97
2023-03-21T05:49:22.252Z,32.20
2023-03-21T05:53:23.445Z,19.57
2023-03-21T05:57:27.537Z,14.27
2023-03-21T06:01:28.553Z,19.47
2023-03-21T06:05:29.938Z,11.60
2023-03-21T06:09:31.260Z,40.73
2023-03-21T06:13:32.573Z,80.43
2023-03-21T06:17:33.854Z,66.50
2023-03-21T06:21:35.070Z,36.77
2023-03-21T06:25:36.661Z,25.93
2023-03-21T06:29:38.199Z,15.20
2023-03-21T06:33:39.450Z,17.80
2023-03-21T06:37:40.576Z,16.50
2023-03-21T06:41:41.582Z,16.33
2023-03-21T06:45:43.290Z,18.47
2023-03-21T06:49:44.800Z,15.90
2023-03-21T06:53:46.133Z,13.63
2023-03-21T06:57:47.293Z,11.90
2023-03-21T07:01:48.307Z,20.73
2023-03-21T07:05:49.467Z,12.37
2023-03-21T07:09:51.689Z,14.27
2023-03-21T07:13:53.046Z,14.03
2023-03-21T07:17:54.314Z,14.33
2023-03-21T07:21:55.698Z,9.30
2023-03-21T07:25:56.819Z,13.17
2023-03-21T07:29:58.073Z,11.43
2023-03-21T07:33:59.281Z,10.53
2023-03-21T07:38:00.519Z,13.30
2023-03-21T07:42:02.076Z,13.60
2023-03-21T07:46:03.759Z,9.47
2023-03-21T07:50:05.824Z,14.57
2023-03-21T07:54:06.820Z,13.67
2023-03-21T07:58:07.904Z,10.23
2023-03-21T08:02:16.595Z,15.83
2023-03-21T08:06:17.773Z,7.17
2023-03-21T08:10:19.076Z,8.57
2023-03-21T08:14:20.219Z,8.53
2023-03-21T08:18:21.200Z,6.87
2023-03-21T08:22:22.200Z,15.80
2023-03-21T08:26:25.123Z,10.77
2023-03-21T08:30:27.996Z,13.50
2023-03-21T08:34:28.970Z,8.90
2023-03-21T08:38:31.977Z,12.17
2023-03-21T08:42:33.514Z,10.90
2023-03-21T08:46:34.795Z,10.07
2023-03-21T08:50:35.900Z,11.23
2023-03-21T08:54:37.604Z,11.87
2023-03-21T08:58:38.616Z,14.07
2023-03-21T09:02:41.052Z,8.73
2023-03-21T09:06:43.941Z,15.90
2023-03-21T09:10:44.902Z,14.57
2023-03-21T09:14:45.954Z,8.63
2023-03-21T09:18:49.167Z,11.37
2023-03-21T09:22:54.045Z,13.87
2023-03-21T09:26:55.439Z,9.03
2023-03-21T09:30:59.808Z,10.30
2023-03-21T09:35:00.804Z,12.53
2023-03-21T09:39:03.527Z,12.00
2023-03-21T09:43:14.964Z,12.23
2023-03-21T09:47:21.067Z,17.27
2023-03-21T09:51:24.295Z,11.23
2023-03-21T09:55:33.642Z,10.47
2023-03-21T09:59:37.458Z,9.13
2023-03-21T10:03:38.512Z,8.27
2023-03-21T10:07:44.037Z,10.07
2023-03-21T10:11:49.509Z,15.33
2023-03-21T10:15:51.182Z,8.77
2023-03-21T10:20:20.705Z,7.93
2023-03-21T10:24:25.522Z,12.13
2023-03-21T10:28:34.505Z,12.17
2023-03-21T10:32:35.147Z,10.10
2023-03-21T10:36:37.595Z,15.23
2023-03-21T10:40:38.746Z,11.40
2023-03-21T10:44:39.951Z,9.53
2023-03-21T10:48:44.462Z,9.80
2023-03-21T10:52:49.388Z,11.17
2023-03-21T10:56:56.921Z,15.57
2023-03-21T11:01:02.108Z,13.37
2023-03-21T11:05:09.723Z,7.83
2023-03-21T11:09:16.620Z,12.60
2023-03-21T11:13:21.574Z,11.37
2023-03-21T11:17:31.537Z,13.27
2023-03-21T11:21:37.118Z,14.17
2023-03-21T11:25:41.786Z,13.93
2023-03-21T11:29:48.650Z,20.00
2023-03-21T11:33:59.226Z,14.43
2023-03-21T11:38:00.182Z,10.40
2023-03-21T11:42:01.357Z,15.73
2023-03-21T11:46:11.438Z,11.53
2023-03-21T11:50:18.556Z,14.03
2023-03-21T11:54:55.270Z,11.67
2023-03-21T11:59:24.172Z,13.03
2023-03-21T12:03:41.483Z,12.00
2023-03-21T12:08:01.230Z,14.53
2023-03-21T12:12:15.119Z,12.43
2023-03-21T12:16:29.416Z,11.10
2023-03-21T12:20:43.552Z,14.53
2023-03-21T12:24:56.033Z,12.43
2023-03-21T12:29:03.598Z,13.40
2023-03-21T12:33:37.295Z,13.27
2023-03-21T12:38:16.619Z,12.67
2023-03-21T12:42:37.920Z,13.70
2023-03-21T12:47:16.206Z,15.87
2023-03-21T12:51:24.456Z,11.80
2023-03-21T12:55:31.937Z,14.27
2023-03-21T12:59:39.624Z,10.60
2023-03-21T13:03:44.675Z,11.00
2023-03-21T13:07:49.510Z,9.93
2023-03-21T13:11:54.534Z,12.57
2023-03-21T13:16:11.594Z,10.13
2023-03-21T13:20:19.704Z,10.90
2023-03-21T13:24:39.887Z,15.67
2023-03-21T13:28:41.859Z,12.47
2023-03-21T13:32:45.952Z,17.00
2023-03-21T13:36:48.692Z,13.67
2023-03-21T13:40:52.986Z,19.03
2023-03-21T13:44:57.437Z,17.53
2023-03-21T13:49:01.210Z,13.30
2023-03-21T13:53:15.315Z,14.07
2023-03-21T13:57:30.034Z,17.07
2023-03-21T14:02:00.479Z,21.00
2023-03-21T14:06:01.916Z,16.97
2023-03-21T14:10:18.658Z,21.13
2023-03-21T14:14:23.260Z,20.43
2023-03-21T14:18:47.611Z,19.07
2023-03-21T14:22:30.039Z,18.13
2023-03-21T14:26:35.221Z,19.27
2023-03-21T14:30:38.873Z,22.90
2023-03-21T14:34:42.049Z,29.07
2023-03-21T14:38:43.659Z,26.77
2023-03-21T14:42:48.370Z,25.60
2023-03-21T14:46:49.894Z,25.13
2023-03-21T14:50:53.924Z,27.03
2023-03-21T14:54:56.016Z,26.17
2023-03-21T14:58:57.823Z,24.30
2023-03-21T15:03:00.158Z,24.17
2023-03-21T15:07:04.276Z,25.17
2023-03-21T15:11:08.826Z,25.37
2023-03-21T15:15:13.877Z,32.37
2023-03-21T15:19:18.935Z,28.70
2023-03-21T15:23:35.497Z,30.77
2023-03-21T15:27:41.630Z,25.53
2023-03-21T15:31:44.040Z,28.60
2023-03-21T15:35:55.004Z,27.03
2023-03-21T15:39:59.857Z,26.83
2023-03-21T15:44:10.720Z,25.40
2023-03-21T15:48:14.262Z,24.73
2023-03-21T15:52:16.644Z,24.57
2023-03-21T15:56:19.803Z,28.00
2023-03-21T16:00:42.338Z,24.57
2023-03-21T16:05:02.642Z,24.27
2023-03-21T16:09:20.823Z,24.23
2023-03-21T16:13:21.901Z,23.17
2023-03-21T16:17:29.615Z,20.07
2023-03-21T16:21:31.449Z,24.40
2023-03-21T16:25:32.748Z,22.03
2023-03-21T16:29:34.049Z,21.77
2023-03-21T16:33:35.186Z,22.77
2023-03-21T16:37:36.486Z,24.53
2023-03-21T16:41:37.636Z,25.33
2023-03-21T16:45:38.870Z,24.00
2023-03-21T16:49:39.880Z,22.57
2023-03-21T16:53:41.205Z,23.10
2023-03-21T16:57:42.856Z,24.87
2023-03-21T17:01:45.381Z,24.23
2023-03-21T17:05:46.804Z,26.73
2023-03-21T17:09:47.878Z,29.23
2023-03-21T17:13:50.530Z,29.23
2023-03-21T17:17:53.558Z,30.83
2023-03-21T17:21:54.654Z,26.80
2023-03-21T17:25:55.831Z,27.73
2023-03-21T17:29:57.619Z,27.10
2023-03-21T17:33:59.078Z,25.57
2023-03-21T17:38:00.316Z,26.10
2023-03-21T17:42:01.349Z,25.27
2023-03-21T17:46:02.593Z,26.10
2023-03-21T17:50:04.597Z,30.90
2023-03-21T17:54:06.232Z,40.50
2023-03-21T17:58:07.599Z,39.43
2023-03-21T18:02:08.741Z,29.27
2023-03-21T18:06:19.039Z,31.23
2023-03-21T18:10:23.599Z,32.03
2023-03-21T18:14:28.761Z,31.03
2023-03-21T18:18:27.971Z,31.30
2023-03-21T18:22:29.179Z,28.43
2023-03-21T18:26:31.265Z,28.00
2023-03-21T18:30:53.056Z,28.47
2023-03-21T18:34:38.074Z,35.60
2023-03-21T18:38:39.741Z,26.23
2023-03-21T18:43:08.716Z,26.30
2023-03-21T18:46:46.304Z,25.77
2023-03-21T18:50:47.374Z,27.43
2023-03-21T18:54:49.031Z,22.73
2023-03-21T18:58:50.418Z,24.20
2023-03-21T19:02:58.230Z,26.43
2023-03-21T19:06:56.892Z,21.37
2023-03-21T19:11:00.136Z,21.17
2023-03-21T19:15:01.029Z,19.83
2023-03-21T19:19:03.085Z,19.80
2023-03-21T19:23:05.616Z,24.03
2023-03-21T19:27:07.144Z,16.33
2023-03-21T19:31:08.788Z,17.13
2023-03-21T19:35:10.405Z,15.73
2023-03-21T19:39:12.969Z,16.17
2023-03-21T19:43:32.376Z,17.40
2023-03-21T19:47:20.673Z,12.63
2023-03-21T19:51:29.099Z,15.80
2023-03-21T19:55:26.701Z,13.33
2023-03-21T19:59:27.889Z,14.97
2023-03-21T20:03:28.903Z,15.53
2023-03-21T20:07:31.991Z,14.87
2023-03-21T20:11:33.585Z,16.10
2023-03-21T20:15:44.919Z,17.03
2023-03-21T20:19:37.788Z,21.67
2023-03-21T20:23:38.761Z,27.33
2023-03-21T20:27:41.650Z,18.00
2023-03-21T20:31:42.953Z,48.77
2023-03-21T20:36:32.162Z,28.30
2023-03-21T20:39:48.539Z,21.63
2023-03-21T20:47:52.708Z,19.70
2023-03-21T20:55:59.695Z,15.50
2023-03-21T21:00:01.213Z,14.37
2023-03-21T21:04:02.648Z,15.67
2023-03-21T21:08:04.033Z,16.83
2023-03-21T21:12:07.772Z,16.37
2023-03-21T21:16:09.740Z,14.37
2023-03-21T21:20:17.141Z,15.07
2023-03-21T21:24:18.701Z,15.37
2023-03-21T21:28:22.689Z,14.67
2023-03-21T21:32:24.195Z,12.83
2023-03-21T21:36:25.482Z,15.23
2023-03-21T21:40:26.703Z,14.67
2023-03-21T21:44:27.880Z,17.13
2023-03-21T21:48:28.907Z,45.30
2023-03-21T21:52:30.243Z,46.10
2023-03-21T21:56:36.374Z,31.70
2023-03-21T22:00:37.614Z,21.67
2023-03-21T22:08:44.472Z,21.50
2023-03-21T22:12:45.720Z,22.43
2023-03-21T22:16:46.921Z,20.93
2023-03-21T22:20:48.114Z,24.37
2023-03-21T22:24:49.869Z,23.47
2023-03-21T22:28:50.906Z,20.33
2023-03-21T22:33:08.100Z,18.90
2023-03-21T22:36:56.371Z,15.87
2023-03-21T22:40:59.634Z,12.13
2023-03-21T22:45:01.037Z,13.93
2023-03-21T22:49:03.494Z,18.13
2023-03-21T22:53:04.627Z,20.07
2023-03-21T22:57:06.352Z,19.80
2023-03-21T23:01:07.638Z,25.87
2023-03-21T23:05:10.110Z,23.37
2023-03-21T23:09:12.476Z,22.47
2023-03-21T23:13:13.621Z,27.30
2023-03-21T23:17:15.875Z,22.03
2023-03-21T23:21:18.172Z,21.87
2023-03-21T23:25:19.958Z,14.87
2023-03-21T23:29:21.024Z,14.10
2023-03-21T23:33:22.266Z,11.10
2023-03-21T23:37:24.481Z,9.97
2023-03-21T23:41:25.977Z,11.67
2023-03-21T23:45:26.924Z,10.67
2023-03-21T23:49:28.549Z,8.80
2023-03-21T23:53:29.959Z,10.60
2023-03-21T23:57:31.403Z,11.43
